createdAt,value
2022-11-14T00:01:18.894Z,9.50
2022-11-14T00:04:29.744Z,9.80
2022-11-14T00:07:29.935Z,10.20
2022-11-14T00:10:30.386Z,10.20
2022-11-14T00:13:36.904Z,10.10
2022-11-14T00:16:37.625Z,10.10
2022-11-14T00:19:45.900Z,10.50
2022-11-14T00:22:46.292Z,10.60
2022-11-14T00:25:52.985Z,10.60
2022-11-14T00:28:59.889Z,10.70
2022-11-14T00:32:00.078Z,10.60
2022-11-14T00:35:07.946Z,10.30
2022-11-14T00:38:08.036Z,9.90
2022-11-14T00:41:14.909Z,9.80
2022-11-14T00:44:15.076Z,9.60
2022-11-14T00:47:21.926Z,9.60
2022-11-14T00:50:24.141Z,9.40
2022-11-14T00:53:30.913Z,9.80
2022-11-14T00:56:31.113Z,10.10
2022-11-14T00:59:36.910Z,10.20
2022-11-14T01:02:43.923Z,10.20
2022-11-14T01:05:46.427Z,10.40
2022-11-14T01:08:53.037Z,10.50
2022-11-14T01:11:53.233Z,10.50
2022-11-14T01:15:00.035Z,10.40
2022-11-14T01:18:00.351Z,10.20
2022-11-14T01:21:08.987Z,9.60
2022-11-14T01:24:09.390Z,9.50
2022-11-14T01:27:15.931Z,9.60
2022-11-14T01:30:16.409Z,9.90
2022-11-14T01:33:22.920Z,10.10
2022-11-14T01:36:23.739Z,10.20
2022-11-14T01:39:22.977Z,10.20
2022-11-14T01:42:29.992Z,10.10
2022-11-14T01:45:48.380Z,9.90
2022-11-14T01:48:55.922Z,9.80
2022-11-14T01:52:00.933Z,9.60
2022-11-14T01:55:10.007Z,9.70
2022-11-14T01:58:11.077Z,9.90
2022-11-14T02:01:18.017Z,10.00
2022-11-14T02:04:33.081Z,10.00
2022-11-14T02:07:36.104Z,9.90
2022-11-14T02:10:43.033Z,9.80
2022-11-14T02:13:49.948Z,9.70
2022-11-14T02:17:07.723Z,9.50
2022-11-14T02:20:25.040Z,8.80
2022-11-14T02:23:38.947Z,8.60
2022-11-14T02:26:39.593Z,9.10
2022-11-14T02:29:46.022Z,9.30
2022-11-14T02:36:15.126Z,9.50
2022-11-14T02:39:21.939Z,9.10
2022-11-14T02:42:29.021Z,8.90
2022-11-14T02:45:29.295Z,9.10
2022-11-14T02:48:35.948Z,9.50
2022-11-14T02:51:36.767Z,9.70
2022-11-14T02:54:42.961Z,9.60
2022-11-14T02:57:43.414Z,9.40
2022-11-14T03:01:18.440Z,8.90
2022-11-14T03:04:16.163Z,8.30
2022-11-14T03:07:18.027Z,7.90
2022-11-14T03:10:18.723Z,8.10
2022-11-14T03:13:24.939Z,8.10
2022-11-14T03:16:31.980Z,7.90
2022-11-14T03:19:32.192Z,7.90
2022-11-14T03:22:39.963Z,7.80
2022-11-14T03:25:40.119Z,7.80
2022-11-14T03:28:47.972Z,8.40
2022-11-14T03:31:55.004Z,9.00
2022-11-14T03:34:55.412Z,9.40
2022-11-14T03:38:03.981Z,9.40
2022-11-14T03:41:04.366Z,9.30
2022-11-14T03:44:10.986Z,9.40
2022-11-14T03:47:11.328Z,9.40
2022-11-14T03:50:17.978Z,9.30
2022-11-14T03:53:25.978Z,9.20
2022-11-14T03:56:26.270Z,9.10
2022-11-14T03:59:32.999Z,8.90
2022-11-14T04:02:46.971Z,8.60
2022-11-14T04:05:54.022Z,8.60
2022-11-14T04:09:02.974Z,8.70
2022-11-14T04:12:03.484Z,8.80
2022-11-14T04:15:09.972Z,8.90
2022-11-14T04:18:10.325Z,8.90
2022-11-14T04:21:17.008Z,8.60
2022-11-14T04:24:18.749Z,8.40
2022-11-14T04:27:25.073Z,8.00
2022-11-14T04:30:34.676Z,8.40
2022-11-14T04:33:42.097Z,8.90
2022-11-14T04:36:42.318Z,9.00
2022-11-14T04:39:51.045Z,9.00
2022-11-14T04:42:50.340Z,8.90
2022-11-14T04:45:57.082Z,8.90
2022-11-14T04:48:56.433Z,8.80
2022-11-14T04:52:02.988Z,8.70
2022-11-14T04:55:09.981Z,8.70
2022-11-14T04:58:10.203Z,8.60
2022-11-14T05:01:17.210Z,7.80
2022-11-14T05:04:24.183Z,7.40
2022-11-14T05:07:24.037Z,7.20
2022-11-14T05:10:25.816Z,7.50
2022-11-14T05:13:31.998Z,7.80
2022-11-14T05:16:38.988Z,8.30
2022-11-14T05:19:39.220Z,8.30
2022-11-14T05:22:46.057Z,8.60
2022-11-14T05:25:47.221Z,8.70
2022-11-14T05:28:53.998Z,8.80
2022-11-14T05:31:54.240Z,8.80
2022-11-14T05:35:01.008Z,8.50
2022-11-14T05:38:08.018Z,8.30
2022-11-14T05:41:10.611Z,8.40
2022-11-14T05:44:18.017Z,8.50
2022-11-14T05:47:18.524Z,8.40
2022-11-14T05:50:25.138Z,8.30
2022-11-14T05:53:31.992Z,8.60
2022-11-14T05:56:34.253Z,8.50
2022-11-14T05:59:41.035Z,8.70
2022-11-14T06:02:55.060Z,8.70
2022-11-14T06:06:02.051Z,8.70
2022-11-14T06:09:09.006Z,8.40
2022-11-14T06:12:10.844Z,8.30
2022-11-14T06:15:17.015Z,8.40
2022-11-14T06:18:17.390Z,8.60
2022-11-14T06:21:25.014Z,8.60
2022-11-14T06:24:25.600Z,8.60
2022-11-14T06:27:33.071Z,8.60
2022-11-14T06:30:33.379Z,8.40
2022-11-14T06:33:40.034Z,8.40
2022-11-14T06:36:40.376Z,8.40
2022-11-14T06:39:47.004Z,8.40
2022-11-14T06:42:55.049Z,8.30
2022-11-14T06:45:55.390Z,8.20
2022-11-14T06:49:02.042Z,8.20
2022-11-14T06:52:02.249Z,8.30
2022-11-14T06:55:09.042Z,8.20
2022-11-14T06:58:11.219Z,8.20
2022-11-14T07:01:21.024Z,8.10
2022-11-14T07:04:28.276Z,8.00
2022-11-14T07:07:28.939Z,7.90
2022-11-14T07:10:29.491Z,7.80
2022-11-14T07:13:38.108Z,8.10
2022-11-14T07:16:46.114Z,8.30
2022-11-14T07:19:46.199Z,8.30
2022-11-14T07:22:53.039Z,8.50
2022-11-14T07:25:53.198Z,8.50
2022-11-14T07:29:02.817Z,8.30
2022-11-14T07:32:03.309Z,8.10
2022-11-14T07:35:10.030Z,7.90
2022-11-14T07:38:18.014Z,8.00
2022-11-14T07:41:18.472Z,8.30
2022-11-14T07:44:27.032Z,8.40
2022-11-14T07:47:27.732Z,8.30
2022-11-14T07:50:34.065Z,8.50
2022-11-14T07:53:36.029Z,8.60
2022-11-14T07:56:44.103Z,8.70
2022-11-14T07:59:52.127Z,8.70
2022-11-14T08:02:53.278Z,8.80
2022-11-14T08:06:00.040Z,8.70
2022-11-14T08:09:07.258Z,8.50
2022-11-14T08:12:07.652Z,8.30
2022-11-14T08:15:15.138Z,8.40
2022-11-14T08:18:15.468Z,8.80
2022-11-14T08:21:22.057Z,8.70
2022-11-14T08:24:22.435Z,8.70
2022-11-14T08:27:29.104Z,8.70
2022-11-14T08:30:30.809Z,8.90
2022-11-14T08:33:37.133Z,8.80
2022-11-14T08:36:37.442Z,8.60
2022-11-14T08:39:44.067Z,8.70
2022-11-14T08:42:51.098Z,8.70
2022-11-14T08:45:53.311Z,8.90
2022-11-14T08:48:59.063Z,9.20
2022-11-14T08:51:59.247Z,9.70
2022-11-14T08:55:06.146Z,9.50
2022-11-14T08:58:06.285Z,9.80
2022-11-14T09:01:15.066Z,9.80
2022-11-14T09:04:22.241Z,9.60
2022-11-14T09:07:22.216Z,9.60
2022-11-14T09:10:22.541Z,9.80
2022-11-14T09:13:29.536Z,9.90
2022-11-14T09:16:37.117Z,10.00
2022-11-14T09:19:37.343Z,10.00
2022-11-14T09:22:44.061Z,10.10
2022-11-14T09:25:44.276Z,10.10
2022-11-14T09:28:51.071Z,10.30
2022-11-14T09:31:52.276Z,10.50
2022-11-14T09:34:59.171Z,10.20
2022-11-14T09:38:06.304Z,10.10
2022-11-14T09:41:23.076Z,10.10
2022-11-14T09:44:30.346Z,10.00
2022-11-14T09:47:40.098Z,10.10
2022-11-14T09:50:41.309Z,10.30
2022-11-14T09:53:52.075Z,10.50
2022-11-14T09:56:59.078Z,10.30
2022-11-14T09:59:59.608Z,10.20
2022-11-14T10:03:12.130Z,10.00
2022-11-14T10:06:18.883Z,10.00
2022-11-14T10:09:36.074Z,10.20
2022-11-14T10:12:39.440Z,10.30
2022-11-14T10:15:50.073Z,10.40
2022-11-14T10:19:04.545Z,10.60
2022-11-14T10:22:20.079Z,10.50
2022-11-14T10:25:23.786Z,10.30
2022-11-14T10:28:35.114Z,10.70
2022-11-14T10:31:40.466Z,10.90
2022-11-14T10:34:51.082Z,10.70
2022-11-14T10:37:56.919Z,10.80
2022-11-14T10:41:05.089Z,10.70
2022-11-14T10:44:05.890Z,10.50
2022-11-14T10:47:13.140Z,10.60
2022-11-14T10:50:20.014Z,10.50
2022-11-14T10:53:31.138Z,10.60
2022-11-14T10:56:38.156Z,10.80
2022-11-14T10:59:38.234Z,10.90
2022-11-14T11:02:55.197Z,10.80
2022-11-14T11:05:58.538Z,10.70
2022-11-14T11:09:22.223Z,10.80
2022-11-14T11:12:24.404Z,11.00
2022-11-14T11:15:32.110Z,11.20
2022-11-14T11:18:33.600Z,11.30
2022-11-14T11:21:54.169Z,11.20
2022-11-14T11:24:54.333Z,11.10
2022-11-14T11:28:16.118Z,11.00
2022-11-14T11:31:17.339Z,10.80
2022-11-14T11:34:25.132Z,10.50
2022-11-14T11:37:36.144Z,10.50
2022-11-14T11:40:36.554Z,10.00
2022-11-14T11:43:45.208Z,10.10
2022-11-14T11:46:48.129Z,10.10
2022-11-14T11:49:57.212Z,10.50
2022-11-14T11:53:08.176Z,10.40
2022-11-14T11:56:19.178Z,10.40
2022-11-14T11:59:25.329Z,10.40
2022-11-14T12:02:35.233Z,10.30
2022-11-14T12:05:47.345Z,10.10
2022-11-14T12:08:53.138Z,9.80
2022-11-14T12:11:55.710Z,9.50
2022-11-14T12:15:07.129Z,9.00
2022-11-14T12:18:35.117Z,9.00
2022-11-14T12:21:41.628Z,9.20
2022-11-14T12:25:02.111Z,8.90
2022-11-14T12:28:21.138Z,8.80
2022-11-14T12:31:21.692Z,9.00
2022-11-14T12:34:30.233Z,8.90
2022-11-14T12:37:32.998Z,8.70
2022-11-14T12:40:46.132Z,8.80
2022-11-14T12:43:54.264Z,9.00
2022-11-14T12:47:13.400Z,9.30
2022-11-14T12:50:38.174Z,9.20
2022-11-14T12:53:48.373Z,9.10
2022-11-14T12:57:03.202Z,9.00
2022-11-14T13:00:08.395Z,9.40
2022-11-14T13:03:25.132Z,9.50
2022-11-14T13:06:28.359Z,9.40
2022-11-14T13:09:43.145Z,9.50
2022-11-14T13:13:03.100Z,9.40
2022-11-14T13:16:28.124Z,9.00
2022-11-14T13:19:47.001Z,9.30
2022-11-14T13:22:54.135Z,9.40
2022-11-14T13:25:54.311Z,9.50
2022-11-14T13:29:04.118Z,9.40
2022-11-14T13:32:04.425Z,9.50
2022-11-14T13:35:12.149Z,9.50
2022-11-14T13:38:24.510Z,9.00
2022-11-14T13:42:01.221Z,9.20
2022-11-14T13:45:16.372Z,8.90
2022-11-14T13:48:31.186Z,8.80
2022-11-14T13:51:47.718Z,8.90
2022-11-14T13:54:55.253Z,8.90
2022-11-14T13:58:01.343Z,8.80
2022-11-14T14:01:14.299Z,9.10
2022-11-14T14:04:30.234Z,9.40
2022-11-14T14:07:34.539Z,9.30
2022-11-14T14:10:44.144Z,9.20
2022-11-14T14:13:55.639Z,9.40
2022-11-14T14:17:05.170Z,9.60
2022-11-14T14:20:15.436Z,9.40
2022-11-14T14:23:29.139Z,9.40
2022-11-14T14:26:35.746Z,9.90
2022-11-14T14:29:47.238Z,9.80
2022-11-14T14:33:02.427Z,9.80
2022-11-14T14:36:10.270Z,9.70
2022-11-14T14:39:16.289Z,9.60
2022-11-14T14:42:25.193Z,9.10
2022-11-14T14:45:26.929Z,9.40
2022-11-14T14:48:37.149Z,9.70
2022-11-14T14:51:39.130Z,9.80
2022-11-14T14:54:46.184Z,9.70
2022-11-14T14:57:46.603Z,9.60
2022-11-14T15:00:53.268Z,9.50
2022-11-14T15:04:08.173Z,9.40
2022-11-14T15:07:25.273Z,9.40
2022-11-14T15:10:36.204Z,9.60
2022-11-14T15:13:38.786Z,9.50
2022-11-14T15:16:46.288Z,9.60
2022-11-14T15:19:46.949Z,9.40
2022-11-14T15:22:55.234Z,9.20
2022-11-14T15:26:02.696Z,9.30
2022-11-14T15:29:19.216Z,9.40
2022-11-14T15:32:20.526Z,9.80
2022-11-14T15:35:39.227Z,9.90
2022-11-14T15:38:44.855Z,9.80
2022-11-14T15:41:52.202Z,9.70
2022-11-14T15:44:52.599Z,9.70
2022-11-14T15:47:59.187Z,10.00
2022-11-14T15:50:58.585Z,9.80
2022-11-14T15:54:07.280Z,9.80
2022-11-14T15:57:12.982Z,9.90
2022-11-14T16:00:20.207Z,9.60
2022-11-14T16:03:36.293Z,9.30
2022-11-14T16:06:36.943Z,9.20
2022-11-14T16:09:44.195Z,9.30
2022-11-14T16:12:49.400Z,9.50
2022-11-14T16:15:59.271Z,9.70
2022-11-14T16:18:59.665Z,9.60
2022-11-14T16:22:09.251Z,9.40
2022-11-14T16:25:13.537Z,9.20
2022-11-14T16:28:20.189Z,9.30
2022-11-14T16:31:20.546Z,9.20
2022-11-14T16:34:30.293Z,9.50
2022-11-14T16:37:30.602Z,9.50
2022-11-14T16:40:39.197Z,9.50
2022-11-14T16:43:46.185Z,9.40
2022-11-14T16:46:46.406Z,9.80
2022-11-14T16:49:53.289Z,10.10
2022-11-14T16:52:53.335Z,9.90
2022-11-14T16:56:02.294Z,9.80
2022-11-14T16:59:02.579Z,9.70
2022-11-14T17:02:09.336Z,9.80
2022-11-14T17:05:16.480Z,9.90
2022-11-14T17:08:16.233Z,9.80
2022-11-14T17:11:18.000Z,9.70
2022-11-14T17:14:24.243Z,9.90
2022-11-14T17:17:31.196Z,10.00
2022-11-14T17:20:31.502Z,9.80
2022-11-14T17:23:38.287Z,9.80
2022-11-14T17:26:39.579Z,9.70
2022-11-14T17:29:46.192Z,9.70
2022-11-14T17:32:46.503Z,9.70
2022-11-14T17:35:53.355Z,9.90
2022-11-14T17:38:53.331Z,9.90
2022-11-14T17:42:00.218Z,9.80
2022-11-14T17:45:01.819Z,10.00
2022-11-14T17:48:08.262Z,10.30
2022-11-14T17:51:11.388Z,10.20
2022-11-14T17:54:18.307Z,10.20
2022-11-14T17:57:26.316Z,10.20
2022-11-14T18:00:25.849Z,10.10
2022-11-14T18:03:32.223Z,10.00
2022-11-14T18:06:34.032Z,10.00
2022-11-14T18:09:40.213Z,9.90
2022-11-14T18:12:42.280Z,9.90
2022-11-14T18:15:51.297Z,9.90
2022-11-14T18:18:52.901Z,9.80
2022-11-14T18:21:59.241Z,9.70
2022-11-14T18:25:06.425Z,9.80
2022-11-14T18:28:15.217Z,9.80
2022-11-14T18:31:22.220Z,9.80
2022-11-14T18:34:22.462Z,9.90
2022-11-14T18:37:30.280Z,9.90
2022-11-14T18:40:30.453Z,9.80
2022-11-14T18:43:40.319Z,9.80
2022-11-14T18:46:40.656Z,10.00
2022-11-14T18:49:46.230Z,10.10
2022-11-14T18:52:46.455Z,10.00
2022-11-14T18:55:54.308Z,10.10
2022-11-14T18:58:59.497Z,10.00
2022-11-14T19:02:14.309Z,9.90
2022-11-14T19:05:21.241Z,9.90
2022-11-14T19:08:21.703Z,10.40
2022-11-14T19:11:46.286Z,10.60
2022-11-14T19:14:49.729Z,10.70
2022-11-14T19:17:56.239Z,10.70
2022-11-14T19:20:57.219Z,10.70
2022-11-14T19:24:04.272Z,10.70
2022-11-14T19:27:04.631Z,10.70
2022-11-14T19:30:13.256Z,10.80
2022-11-14T19:33:13.874Z,10.70
2022-11-14T19:36:45.262Z,10.80
2022-11-14T19:39:49.375Z,10.70
2022-11-14T19:42:49.793Z,10.80
2022-11-14T19:46:02.880Z,10.70
2022-11-14T19:49:04.028Z,10.70
2022-11-14T19:52:10.320Z,10.80
2022-11-14T19:55:10.972Z,10.70
2022-11-14T19:58:17.253Z,10.90
2022-11-14T20:01:20.646Z,11.00
2022-11-14T20:04:27.297Z,10.90
2022-11-14T20:07:27.586Z,11.10
2022-11-14T20:10:34.304Z,11.20
2022-11-14T20:13:44.243Z,11.20
2022-11-14T20:16:46.783Z,11.20
2022-11-14T20:19:53.266Z,11.10
2022-11-14T20:22:53.654Z,11.30
2022-11-14T20:26:10.942Z,11.70
2022-11-14T20:29:11.831Z,11.80
2022-11-14T20:32:19.334Z,11.70
2022-11-14T20:35:19.668Z,11.60
2022-11-14T20:38:26.285Z,11.50
2022-11-14T20:41:26.749Z,11.70
2022-11-14T20:44:33.289Z,11.90
2022-11-14T20:47:34.284Z,12.00
2022-11-14T20:50:41.256Z,11.90
2022-11-14T20:53:48.332Z,11.90
2022-11-14T20:56:48.493Z,12.10
2022-11-14T20:59:55.271Z,12.00
2022-11-14T21:02:57.517Z,12.30
2022-11-14T21:06:05.286Z,12.40
2022-11-14T21:09:05.450Z,12.50
2022-11-14T21:12:12.271Z,12.70
2022-11-14T21:15:12.519Z,12.50
2022-11-14T21:18:20.252Z,12.70
2022-11-14T21:21:23.621Z,12.60
2022-11-14T21:24:30.273Z,12.40
2022-11-14T21:27:37.375Z,12.60
2022-11-14T21:30:37.614Z,12.60
2022-11-14T21:33:46.261Z,12.50
2022-11-14T21:36:47.310Z,12.70
2022-11-14T21:39:55.370Z,12.50
2022-11-14T21:42:56.077Z,12.60
2022-11-14T21:46:09.366Z,12.50
2022-11-14T21:49:12.431Z,12.60
2022-11-14T21:52:19.341Z,12.50
2022-11-14T21:55:18.658Z,12.50
2022-11-14T21:58:25.300Z,12.30
2022-11-14T22:01:46.422Z,12.40
2022-11-14T22:04:48.484Z,12.60
2022-11-14T22:07:55.288Z,12.80
2022-11-14T22:10:55.469Z,12.70
2022-11-14T22:14:02.295Z,12.60
2022-11-14T22:17:02.494Z,13.00
2022-11-14T22:20:10.375Z,12.90
2022-11-14T22:23:10.490Z,13.00
2022-11-14T22:26:17.300Z,13.20
2022-11-14T22:29:17.472Z,13.20
2022-11-14T22:32:23.347Z,13.20
2022-11-14T22:35:24.515Z,13.10
2022-11-14T22:38:30.336Z,13.20
2022-11-14T22:41:33.008Z,13.20
2022-11-14T22:44:33.278Z,13.20
2022-11-14T22:47:40.402Z,13.00
2022-11-14T22:50:41.594Z,13.10
2022-11-14T22:53:48.388Z,13.20
2022-11-14T22:56:48.471Z,13.30
2022-11-14T22:59:55.382Z,13.10
2022-11-14T23:02:55.480Z,13.30
2022-11-14T23:06:03.289Z,13.30
2022-11-14T23:09:03.520Z,13.20
2022-11-14T23:12:10.338Z,13.30
2022-11-14T23:15:10.430Z,13.30
2022-11-14T23:18:17.305Z,13.40
2022-11-14T23:21:26.308Z,13.60
2022-11-14T23:24:26.763Z,13.50
2022-11-14T23:27:33.363Z,13.50
2022-11-14T23:30:34.993Z,13.70
2022-11-14T23:33:41.314Z,13.40
2022-11-14T23:36:43.072Z,13.40
2022-11-14T23:39:49.294Z,13.60
2022-11-14T23:42:49.808Z,13.40
2022-11-14T23:45:57.306Z,13.40
2022-11-14T23:48:57.985Z,13.70
2022-11-14T23:52:05.329Z,13.60
2022-11-14T23:55:12.347Z,13.80
2022-11-14T23:58:12.448Z,13.70
